X  Cerrar Datos meteorológicos de aviación METAR     KCRE Grand Strand Airport
Temperatura
39°F Temperatura
37°F Punto de rocío
93% Humedad



Viento
0 MPH
0 KM/H
0 M/S
0 NUDO



Calma
Norte
Condiciones actuales

Claro Claro
Presión 1024.42 (hPa) - 30.25 (inHg)
Visibilidad 9.9 (milla) - 16 (km)
Aeropuerto
Código de aeropuerto KCRE

localidad: Grand Strand Airport
Distancia: 6 (mi)

Metar:
KCRE 040653Z AUTO 00000KT 10SM CLR 04/03 A3025 RMK AO1 SLP243 T00440033

Hora: 04-12-2020 1:53 am EST